createdAt,value
2019-03-21T00:01:59.897Z,102685.60
2019-03-21T00:04:26.068Z,102688.36
2019-03-21T00:06:52.268Z,102689.28
2019-03-21T00:09:18.475Z,102686.88
2019-03-21T00:12:00.461Z,102681.41
2019-03-21T00:14:33.184Z,102679.20
2019-03-21T00:17:00.269Z,102685.70
2019-03-21T00:19:27.597Z,102680.50
2019-03-21T00:21:53.893Z,102685.50
2019-03-21T00:24:19.968Z,102686.89
2019-03-21T00:26:46.275Z,102688.11
2019-03-21T00:29:12.480Z,102684.41
2019-03-21T00:31:38.662Z,102684.30
2019-03-21T00:34:04.967Z,102680.71
2019-03-21T00:36:31.270Z,102685.61
2019-03-21T00:38:57.558Z,102684.02
2019-03-21T00:41:23.774Z,102683.50
2019-03-21T00:43:49.842Z,102684.13
2019-03-21T00:46:15.955Z,102688.30
2019-03-21T00:48:42.161Z,102680.02
2019-03-21T00:51:08.352Z,102680.77
2019-03-21T00:53:34.446Z,102674.28
2019-03-21T00:56:00.567Z,102674.86
2019-03-21T00:58:26.644Z,102670.64
2019-03-21T01:00:56.348Z,102676.23
2019-03-21T01:03:22.500Z,102671.73
2019-03-21T01:05:48.781Z,102671.64
2019-03-21T01:08:14.853Z,102670.77
2019-03-21T01:10:40.980Z,102668.46
2019-03-21T01:13:07.072Z,102669.66
2019-03-21T01:15:33.653Z,102665.86
2019-03-21T01:17:59.862Z,102661.08
2019-03-21T01:20:25.934Z,102656.58
2019-03-21T01:22:52.137Z,102657.48
2019-03-21T01:25:34.883Z,102656.59
2019-03-21T01:28:00.946Z,102659.27
2019-03-21T01:30:27.132Z,102655.66
2019-03-21T01:32:53.312Z,102655.08
2019-03-21T01:35:19.408Z,102649.31
2019-03-21T01:37:45.499Z,102659.78
2019-03-21T01:40:21.502Z,102655.28
2019-03-21T01:42:47.600Z,102651.48
2019-03-21T01:45:19.963Z,102653.30
2019-03-21T01:47:46.148Z,102655.57
2019-03-21T01:50:15.706Z,102645.70
2019-03-21T01:52:41.763Z,102643.69
2019-03-21T01:55:11.374Z,102648.59
2019-03-21T01:57:37.776Z,102641.00
2019-03-21T02:00:24.281Z,102637.53
2019-03-21T02:02:52.762Z,102633.30
2019-03-21T02:05:18.853Z,102634.31
2019-03-21T02:07:44.936Z,102634.31
2019-03-21T02:10:15.384Z,102639.02
2019-03-21T02:12:41.579Z,102638.70
2019-03-21T02:15:12.845Z,102636.71
2019-03-21T02:17:39.110Z,102633.92
2019-03-21T02:20:09.034Z,102632.39
2019-03-21T02:22:35.242Z,102636.00
2019-03-21T02:25:01.441Z,102636.09
2019-03-21T02:27:27.512Z,102629.02
2019-03-21T02:29:53.737Z,102630.80
2019-03-21T02:32:19.831Z,102626.31
2019-03-21T02:34:45.940Z,102628.50
2019-03-21T02:37:13.068Z,102623.22
2019-03-21T02:39:39.184Z,102627.52
2019-03-21T02:42:05.302Z,102625.12
2019-03-21T02:44:31.364Z,102627.41
2019-03-21T02:46:57.532Z,102628.20
2019-03-21T02:49:23.653Z,102620.90
2019-03-21T02:51:49.855Z,102621.12
2019-03-21T02:54:16.029Z,102619.42
2019-03-21T02:56:42.215Z,102625.00
2019-03-21T02:59:08.273Z,102626.16
2019-03-21T03:01:34.378Z,102625.09
2019-03-21T03:04:00.672Z,102621.78
2019-03-21T03:06:26.843Z,102626.05
2019-03-21T03:08:53.017Z,102626.66
2019-03-21T03:11:20.941Z,102629.62
2019-03-21T03:13:49.029Z,102626.73
2019-03-21T03:16:15.318Z,102626.66
2019-03-21T03:18:41.459Z,102631.23
2019-03-21T03:21:07.633Z,102625.38
2019-03-21T03:23:33.712Z,102625.97
2019-03-21T03:25:59.896Z,102630.36
2019-03-21T03:28:32.500Z,102629.58
2019-03-21T03:30:58.670Z,102635.91
2019-03-21T03:33:25.169Z,102635.50
2019-03-21T03:35:51.441Z,102630.52
2019-03-21T03:38:17.511Z,102634.08
2019-03-21T03:41:01.492Z,102642.26
2019-03-21T03:43:27.818Z,102643.27
2019-03-21T03:45:53.866Z,102638.30
2019-03-21T03:48:20.381Z,102643.77
2019-03-21T03:50:46.453Z,102637.67
2019-03-21T03:53:13.653Z,102639.95
2019-03-21T03:55:39.757Z,102638.94
2019-03-21T03:58:18.258Z,102643.92
2019-03-21T04:00:44.597Z,102650.53
2019-03-21T04:03:10.785Z,102654.14
2019-03-21T04:05:36.966Z,102651.62
2019-03-21T04:08:04.189Z,102656.50
2019-03-21T04:10:38.914Z,102657.45
2019-03-21T04:13:05.225Z,102659.10
2019-03-21T04:15:31.669Z,102662.94
2019-03-21T04:17:57.971Z,102672.09
2019-03-21T04:20:48.780Z,102660.56
2019-03-21T04:23:18.577Z,102660.55
2019-03-21T04:25:55.582Z,102658.62
2019-03-21T04:28:21.764Z,102648.66
2019-03-21T04:30:48.044Z,102648.99
2019-03-21T04:33:14.316Z,102657.19
2019-03-21T04:35:40.699Z,102658.77
2019-03-21T04:38:06.899Z,102654.95
2019-03-21T04:40:32.992Z,102652.57
2019-03-21T04:42:59.164Z,102651.00
2019-03-21T04:45:25.654Z,102650.92
2019-03-21T04:47:51.874Z,102649.77
2019-03-21T04:50:21.046Z,102654.42
2019-03-21T04:52:47.137Z,102655.91
2019-03-21T04:55:14.741Z,102663.56
2019-03-21T04:57:40.812Z,102658.23
2019-03-21T05:00:15.916Z,102661.63
2019-03-21T05:02:42.657Z,102657.37
2019-03-21T05:05:10.366Z,102655.92
2019-03-21T05:07:36.585Z,102660.33
2019-03-21T05:10:06.504Z,102662.25
2019-03-21T05:12:32.640Z,102659.87
2019-03-21T05:14:58.739Z,102655.62
2019-03-21T05:17:24.947Z,102651.73
2019-03-21T05:19:51.086Z,102659.99
2019-03-21T05:22:17.266Z,102662.09
2019-03-21T05:24:43.338Z,102665.33
2019-03-21T05:27:09.537Z,102658.42
2019-03-21T05:29:35.619Z,102664.77
2019-03-21T05:32:03.807Z,102665.39
2019-03-21T05:34:29.783Z,102666.41
2019-03-21T05:36:55.863Z,102668.32
2019-03-21T05:39:22.022Z,102670.57
2019-03-21T05:41:48.085Z,102667.11
2019-03-21T05:44:26.878Z,102679.44
2019-03-21T05:46:53.252Z,102676.73
2019-03-21T05:49:19.447Z,102672.02
2019-03-21T05:51:45.654Z,102680.76
2019-03-21T05:54:11.835Z,102688.20
2019-03-21T05:56:38.017Z,102684.84
2019-03-21T05:59:04.132Z,102691.11
2019-03-21T06:01:30.304Z,102695.34
2019-03-21T06:03:56.405Z,102691.94
2019-03-21T06:06:31.897Z,102689.34
2019-03-21T06:08:57.969Z,102687.30
2019-03-21T06:11:24.222Z,102698.88
2019-03-21T06:13:50.421Z,102694.67
2019-03-21T06:16:16.545Z,102688.60
2019-03-21T06:18:52.245Z,102703.75
2019-03-21T06:21:22.187Z,102698.35
2019-03-21T06:24:01.024Z,102701.61
2019-03-21T06:26:46.285Z,102706.59
2019-03-21T06:29:12.550Z,102701.83
2019-03-21T06:31:38.758Z,102706.40
2019-03-21T06:34:04.971Z,102705.52
2019-03-21T06:36:31.101Z,102705.30
2019-03-21T06:38:57.289Z,102706.40
2019-03-21T06:41:23.379Z,102703.39
2019-03-21T06:43:49.510Z,102707.68
2019-03-21T06:46:15.587Z,102706.45
2019-03-21T06:48:41.679Z,102711.23
2019-03-21T06:51:07.876Z,102710.63
2019-03-21T06:53:34.072Z,102706.59
2019-03-21T06:56:00.277Z,102711.31
2019-03-21T06:58:26.483Z,102716.89
2019-03-21T07:00:52.682Z,102719.62
2019-03-21T07:03:18.872Z,102725.09
2019-03-21T07:05:44.938Z,102730.89
2019-03-21T07:08:11.021Z,102727.55
2019-03-21T07:10:37.280Z,102729.17
2019-03-21T07:13:03.695Z,102728.89
2019-03-21T07:15:29.957Z,102722.13
2019-03-21T07:17:56.068Z,102726.62
2019-03-21T07:20:22.235Z,102729.22
2019-03-21T07:22:48.542Z,102719.41
2019-03-21T07:25:14.843Z,102718.39
2019-03-21T07:27:40.963Z,102721.48
2019-03-21T07:30:09.956Z,102719.94
2019-03-21T07:32:36.159Z,102715.92
2019-03-21T07:35:04.556Z,102721.09
2019-03-21T07:37:30.635Z,102714.00
2019-03-21T07:39:56.745Z,102719.00
2019-03-21T07:42:22.935Z,102710.28
2019-03-21T07:44:49.034Z,102711.00
2019-03-21T07:47:15.233Z,102711.30
2019-03-21T07:49:41.416Z,102712.20
2019-03-21T07:52:07.520Z,102712.08
2019-03-21T07:54:33.692Z,102713.52
2019-03-21T07:57:00.100Z,102711.79
2019-03-21T07:59:26.278Z,102715.96
2019-03-21T08:01:52.485Z,102707.09
2019-03-21T08:04:18.585Z,102715.41
2019-03-21T08:06:44.906Z,102725.17
2019-03-21T08:09:11.033Z,102719.22
2019-03-21T08:11:37.110Z,102721.78
2019-03-21T08:14:03.501Z,102717.81
2019-03-21T08:16:29.644Z,102713.45
2019-03-21T08:18:55.764Z,102711.27
2019-03-21T08:21:21.856Z,102707.19
2019-03-21T08:23:47.943Z,102709.04
2019-03-21T08:26:14.131Z,102708.45
2019-03-21T08:28:40.215Z,102709.50
2019-03-21T08:31:10.144Z,102703.33
2019-03-21T08:33:36.355Z,102695.75
2019-03-21T08:36:02.655Z,102707.54
2019-03-21T08:38:28.877Z,102699.67
2019-03-21T08:40:55.068Z,102699.70
2019-03-21T08:43:21.154Z,102702.55
2019-03-21T08:45:47.252Z,102701.12
2019-03-21T08:48:13.431Z,102704.02
2019-03-21T08:50:39.643Z,102701.45
2019-03-21T08:53:05.715Z,102705.70
2019-03-21T08:55:31.816Z,102696.80
2019-03-21T08:57:58.006Z,102698.44
2019-03-21T09:00:33.758Z,102689.03
2019-03-21T09:02:53.403Z,102691.88
2019-03-21T09:05:19.595Z,102696.58
2019-03-21T09:07:45.717Z,102704.27
2019-03-21T09:10:12.017Z,102695.89
2019-03-21T09:12:38.246Z,102695.89
2019-03-21T09:15:08.296Z,102691.76
2019-03-21T09:17:34.446Z,102698.65
2019-03-21T09:20:00.755Z,102697.44
2019-03-21T09:22:27.575Z,102703.44
2019-03-21T09:24:53.881Z,102695.38
2019-03-21T09:27:19.972Z,102693.46
2019-03-21T09:29:53.422Z,102683.14
2019-03-21T09:32:14.285Z,102694.82
2019-03-21T09:34:41.478Z,102697.67
2019-03-21T09:37:07.585Z,102706.14
2019-03-21T09:39:33.700Z,102710.54
2019-03-21T09:41:59.879Z,102699.20
2019-03-21T09:44:27.714Z,102696.50
2019-03-21T09:46:55.827Z,102696.50
2019-03-21T09:49:21.929Z,102691.94
2019-03-21T09:51:48.153Z,102692.31
2019-03-21T09:54:14.242Z,102695.05
2019-03-21T09:56:40.350Z,102697.39
2019-03-21T09:59:06.523Z,102695.94
2019-03-21T10:01:32.836Z,102691.05
2019-03-21T10:03:58.931Z,102682.97
2019-03-21T10:06:25.132Z,102690.08
2019-03-21T10:08:51.245Z,102688.77
2019-03-21T10:11:17.340Z,102681.02
2019-03-21T10:13:43.552Z,102681.95
2019-03-21T10:16:09.796Z,102685.76
2019-03-21T10:18:35.997Z,102685.86
2019-03-21T10:21:02.179Z,102689.23
2019-03-21T10:23:28.316Z,102694.85
2019-03-21T10:25:54.617Z,102688.30
2019-03-21T10:28:20.947Z,102685.30
2019-03-21T10:30:47.186Z,102685.17
2019-03-21T10:33:13.406Z,102690.09
2019-03-21T10:35:39.806Z,102689.91
2019-03-21T10:38:06.425Z,102688.52
2019-03-21T10:40:32.682Z,102689.06
2019-03-21T10:42:59.081Z,102682.78
2019-03-21T10:45:25.338Z,102688.78
2019-03-21T10:47:51.557Z,102688.16
2019-03-21T10:50:29.040Z,102681.66
2019-03-21T10:52:55.740Z,102677.68
2019-03-21T10:55:21.840Z,102679.90
2019-03-21T10:57:47.933Z,102678.05
2019-03-21T11:00:14.157Z,102686.07
2019-03-21T11:02:40.368Z,102672.18
2019-03-21T11:05:06.566Z,102667.37
2019-03-21T11:07:32.661Z,102671.47
2019-03-21T11:09:58.856Z,102666.63
2019-03-21T11:12:25.067Z,102674.53
2019-03-21T11:14:51.138Z,102672.72
2019-03-21T11:17:17.458Z,102669.97
2019-03-21T11:19:43.773Z,102669.78
2019-03-21T11:22:09.863Z,102673.42
2019-03-21T11:24:36.067Z,102665.77
2019-03-21T11:27:02.275Z,102661.42
2019-03-21T11:29:28.394Z,102661.41
2019-03-21T11:31:54.601Z,102657.28
2019-03-21T11:34:21.786Z,102650.56
2019-03-21T11:36:47.942Z,102642.59
2019-03-21T11:39:14.143Z,102651.27
2019-03-21T11:41:40.349Z,102642.08
2019-03-21T11:44:06.635Z,102639.11
2019-03-21T11:46:32.698Z,102638.86
2019-03-21T11:48:58.833Z,102634.25
2019-03-21T11:51:24.933Z,102630.12
2019-03-21T11:53:50.997Z,102635.98
2019-03-21T11:56:17.701Z,102629.02
2019-03-21T11:58:43.808Z,102632.84
2019-03-21T12:01:10.031Z,102627.07
2019-03-21T12:03:36.368Z,102624.09
2019-03-21T12:06:02.693Z,102623.26
2019-03-21T12:08:28.800Z,102612.75
2019-03-21T12:10:54.919Z,102621.21
2019-03-21T12:13:21.065Z,102618.70
2019-03-21T12:15:47.191Z,102630.03
2019-03-21T12:18:13.415Z,102627.52
2019-03-21T12:20:39.558Z,102622.61
2019-03-21T12:23:05.755Z,102626.09
2019-03-21T12:25:31.884Z,102622.16
2019-03-21T12:27:58.176Z,102619.67
2019-03-21T12:30:28.090Z,102612.90
2019-03-21T12:32:54.217Z,102605.53
2019-03-21T12:35:20.308Z,102614.59
2019-03-21T12:37:46.385Z,102612.25
2019-03-21T12:40:12.593Z,102610.55
2019-03-21T12:42:38.686Z,102602.45
2019-03-21T12:45:08.703Z,102605.62
2019-03-21T12:47:34.882Z,102602.96
2019-03-21T12:50:05.309Z,102600.19
2019-03-21T12:52:40.998Z,102595.06
2019-03-21T12:54:59.585Z,102593.59
2019-03-21T12:57:25.656Z,102598.19
2019-03-21T12:59:51.755Z,102597.98
2019-03-21T13:02:17.929Z,102592.45
2019-03-21T13:04:44.260Z,102586.19
2019-03-21T13:07:10.367Z,102585.05
2019-03-21T13:09:36.593Z,102587.86
2019-03-21T13:12:02.915Z,102581.84
2019-03-21T13:14:29.472Z,102574.59
2019-03-21T13:16:55.718Z,102573.97
2019-03-21T13:19:21.907Z,102569.95
2019-03-21T13:21:48.230Z,102564.91
2019-03-21T13:24:17.223Z,102570.02
2019-03-21T13:26:42.375Z,102565.58
2019-03-21T13:29:08.591Z,102548.05
2019-03-21T13:31:34.715Z,102562.08
2019-03-21T13:34:00.841Z,102559.66
2019-03-21T13:36:27.023Z,102564.69
2019-03-21T13:38:54.217Z,102554.84
2019-03-21T13:41:20.307Z,102559.57
2019-03-21T13:43:46.413Z,102550.70
2019-03-21T13:46:12.580Z,102546.83
2019-03-21T13:48:39.740Z,102546.47
2019-03-21T13:51:05.846Z,102541.59
2019-03-21T13:53:33.022Z,102539.61
2019-03-21T13:55:59.351Z,102542.37
2019-03-21T13:58:25.491Z,102549.82
2019-03-21T14:00:51.562Z,102539.88
2019-03-21T14:03:25.008Z,102538.91
2019-03-21T14:05:45.755Z,102537.59
2019-03-21T14:08:11.898Z,102534.55
2019-03-21T14:10:38.086Z,102536.66
2019-03-21T14:13:04.184Z,102524.99
2019-03-21T14:15:30.332Z,102518.27
2019-03-21T14:17:56.634Z,102517.87
2019-03-21T14:20:22.948Z,102515.41
2019-03-21T14:22:49.063Z,102513.38
2019-03-21T14:25:15.364Z,102510.74
2019-03-21T14:27:41.689Z,102502.56
2019-03-21T14:30:13.981Z,102500.86
2019-03-21T14:32:40.191Z,102500.73
2019-03-21T14:35:07.330Z,102497.11
2019-03-21T14:37:33.446Z,102502.27
2019-03-21T14:39:59.540Z,102501.25
2019-03-21T14:42:25.711Z,102501.37
2019-03-21T14:44:51.970Z,102499.86
2019-03-21T14:47:18.173Z,102493.23
2019-03-21T14:49:44.384Z,102489.50
2019-03-21T14:52:10.579Z,102483.63
2019-03-21T14:54:36.782Z,102488.65
2019-03-21T14:57:02.988Z,102481.56
2019-03-21T14:59:29.195Z,102480.87
2019-03-21T15:01:55.341Z,102476.19
2019-03-21T15:04:21.465Z,102484.63
2019-03-21T15:06:47.548Z,102482.69
2019-03-21T15:09:13.646Z,102482.74
2019-03-21T15:11:39.860Z,102486.23
2019-03-21T15:14:05.990Z,102486.29
2019-03-21T15:16:32.101Z,102486.98
2019-03-21T15:18:59.209Z,102483.97
2019-03-21T15:21:25.421Z,102479.74
2019-03-21T15:23:59.309Z,102473.78
2019-03-21T15:26:19.704Z,102474.25
2019-03-21T15:28:45.800Z,102466.12
2019-03-21T15:31:11.973Z,102468.67
2019-03-21T15:33:38.143Z,102470.70
2019-03-21T15:36:04.458Z,102471.31
2019-03-21T15:38:30.636Z,102476.63
2019-03-21T15:40:56.758Z,102478.02
2019-03-21T15:43:22.987Z,102478.30
2019-03-21T15:45:49.176Z,102473.63
2019-03-21T15:48:15.471Z,102471.57
2019-03-21T15:50:42.777Z,102466.53
2019-03-21T15:53:08.899Z,102467.57
2019-03-21T15:55:35.202Z,102466.39
2019-03-21T15:58:01.507Z,102464.20
2019-03-21T16:00:36.359Z,102464.96
2019-03-21T16:03:04.871Z,102467.47
2019-03-21T16:05:31.192Z,102463.70
2019-03-21T16:07:57.288Z,102455.49
2019-03-21T16:10:23.358Z,102460.83
2019-03-21T16:12:49.589Z,102458.90
2019-03-21T16:15:15.814Z,102459.05
2019-03-21T16:17:42.976Z,102460.52
2019-03-21T16:20:09.317Z,102459.50
2019-03-21T16:22:35.750Z,102457.17
2019-03-21T16:25:04.394Z,102456.73
2019-03-21T16:27:31.568Z,102452.24
2019-03-21T16:29:57.762Z,102456.01
2019-03-21T16:32:23.986Z,102457.56
2019-03-21T16:34:50.079Z,102463.50
2019-03-21T16:37:16.325Z,102460.63
2019-03-21T16:39:42.419Z,102459.09
2019-03-21T16:42:08.548Z,102457.59
2019-03-21T16:44:34.739Z,102454.16
2019-03-21T16:47:02.017Z,102452.66
2019-03-21T16:49:28.158Z,102457.36
2019-03-21T16:51:54.385Z,102457.64
2019-03-21T16:54:20.723Z,102458.97
2019-03-21T16:56:46.839Z,102457.86
2019-03-21T16:59:13.067Z,102456.56
2019-03-21T17:01:39.311Z,102464.39
2019-03-21T17:04:05.502Z,102462.56
2019-03-21T17:06:31.739Z,102462.27
2019-03-21T17:08:57.805Z,102463.16
2019-03-21T17:11:23.944Z,102470.70
2019-03-21T17:13:50.044Z,102463.73
2019-03-21T17:16:16.293Z,102464.56
2019-03-21T17:18:42.547Z,102461.92
2019-03-21T17:21:09.741Z,102460.66
2019-03-21T17:23:37.129Z,102469.50
2019-03-21T17:26:03.426Z,102469.61
2019-03-21T17:28:29.656Z,102482.56
2019-03-21T17:30:55.893Z,102476.16
2019-03-21T17:33:22.028Z,102481.19
2019-03-21T17:35:48.280Z,102480.79
2019-03-21T17:38:14.606Z,102483.52
2019-03-21T17:40:40.714Z,102487.08
2019-03-21T17:43:06.921Z,102484.66
2019-03-21T17:45:33.411Z,102476.51
2019-03-21T17:47:59.487Z,102480.70
2019-03-21T17:50:25.750Z,102479.48
2019-03-21T17:52:51.958Z,102481.66
2019-03-21T17:55:19.364Z,102480.45
2019-03-21T17:57:45.649Z,102478.33
2019-03-21T18:00:21.227Z,102487.30
2019-03-21T18:02:47.648Z,102490.27
2019-03-21T18:05:13.971Z,102488.10
2019-03-21T18:07:40.087Z,102488.03
2019-03-21T18:10:16.091Z,102488.48
2019-03-21T18:12:42.303Z,102496.28
2019-03-21T18:15:08.614Z,102495.02
2019-03-21T18:17:34.760Z,102490.41
2019-03-21T18:20:01.005Z,102491.05
2019-03-21T18:22:27.322Z,102482.81
2019-03-21T18:24:54.293Z,102485.61
2019-03-21T18:27:20.582Z,102487.36
2019-03-21T18:29:46.809Z,102491.89
2019-03-21T18:32:12.949Z,102497.34
2019-03-21T18:34:39.059Z,102493.59
2019-03-21T18:37:05.193Z,102493.19
2019-03-21T18:39:31.329Z,102486.05
2019-03-21T18:41:57.559Z,102492.02
2019-03-21T18:44:23.777Z,102493.27
2019-03-21T18:46:49.905Z,102492.98
2019-03-21T18:49:16.034Z,102497.32
2019-03-21T18:51:42.329Z,102495.66
2019-03-21T18:54:08.507Z,102493.83
2019-03-21T18:56:34.620Z,102493.83
2019-03-21T18:59:00.885Z,102493.09
2019-03-21T19:01:27.123Z,102490.95
2019-03-21T19:03:53.232Z,102500.56
2019-03-21T19:06:19.378Z,102486.00
2019-03-21T19:08:45.633Z,102484.05
2019-03-21T19:11:11.961Z,102493.23
2019-03-21T19:13:38.264Z,102493.23
2019-03-21T19:16:05.373Z,102497.00
2019-03-21T19:18:31.582Z,102502.45
2019-03-21T19:20:57.814Z,102506.28
2019-03-21T19:23:24.017Z,102496.53
2019-03-21T19:25:50.239Z,102500.13
2019-03-21T19:28:16.631Z,102495.95
2019-03-21T19:30:42.764Z,102504.37
2019-03-21T19:33:09.134Z,102497.86
2019-03-21T19:35:35.442Z,102504.66
2019-03-21T19:38:01.692Z,102506.12
2019-03-21T19:40:28.000Z,102500.43
2019-03-21T19:42:54.239Z,102506.11
2019-03-21T19:45:20.596Z,102511.33
2019-03-21T19:47:46.960Z,102513.72
2019-03-21T19:50:17.752Z,102505.42
2019-03-21T19:52:44.366Z,102508.76
2019-03-21T19:55:10.932Z,102509.11
2019-03-21T19:57:37.241Z,102509.42
2019-03-21T20:00:15.751Z,102511.05
2019-03-21T20:02:42.250Z,102507.78
2019-03-21T20:05:09.670Z,102516.68
2019-03-21T20:07:35.990Z,102511.86
2019-03-21T20:10:03.615Z,102510.31
2019-03-21T20:12:29.861Z,102510.00
2019-03-21T20:14:56.329Z,102508.81
2019-03-21T20:17:22.555Z,102512.70
2019-03-21T20:19:48.794Z,102511.30
2019-03-21T20:22:15.174Z,102509.19
2019-03-21T20:24:41.306Z,102511.88
2019-03-21T20:27:09.879Z,102512.58
2019-03-21T20:29:36.256Z,102511.23
2019-03-21T20:32:02.535Z,102514.22
2019-03-21T20:34:28.758Z,102517.65
2019-03-21T20:36:56.130Z,102522.72
2019-03-21T20:39:22.450Z,102517.20
2019-03-21T20:41:48.656Z,102518.27
2019-03-21T20:44:15.623Z,102522.91
2019-03-21T20:46:42.050Z,102519.11
2019-03-21T20:49:09.460Z,102515.77
2019-03-21T20:51:36.792Z,102518.61
2019-03-21T20:54:03.113Z,102521.82
2019-03-21T20:56:29.425Z,102518.63
2019-03-21T20:58:55.775Z,102522.90
2019-03-21T21:01:22.000Z,102518.04
2019-03-21T21:03:48.337Z,102516.58
2019-03-21T21:06:14.688Z,102519.08
2019-03-21T21:08:40.988Z,102518.37
2019-03-21T21:11:07.357Z,102517.81
2019-03-21T21:13:33.469Z,102513.32
2019-03-21T21:15:59.674Z,102512.72
2019-03-21T21:18:26.022Z,102512.95
2019-03-21T21:20:52.206Z,102515.52
2019-03-21T21:23:18.515Z,102515.80
2019-03-21T21:25:44.629Z,102511.27
2019-03-21T21:28:10.837Z,102500.92
2019-03-21T21:30:37.062Z,102506.77
2019-03-21T21:33:03.260Z,102510.66
2019-03-21T21:35:29.442Z,102516.34
2019-03-21T21:37:55.500Z,102508.47
2019-03-21T21:40:21.620Z,102502.16
2019-03-21T21:42:47.843Z,102506.72
2019-03-21T21:45:15.827Z,102506.59
2019-03-21T21:47:42.137Z,102509.91
2019-03-21T21:50:13.862Z,102510.12
2019-03-21T21:52:42.304Z,102508.54
2019-03-21T21:55:08.462Z,102498.44
2019-03-21T21:57:34.808Z,102503.93
2019-03-21T22:00:01.092Z,102498.44
2019-03-21T22:02:27.498Z,102489.69
2019-03-21T22:04:53.680Z,102495.88
2019-03-21T22:07:19.878Z,102494.09
2019-03-21T22:09:45.975Z,102500.67
2019-03-21T22:12:12.068Z,102498.48
2019-03-21T22:14:38.173Z,102500.00
2019-03-21T22:17:04.369Z,102500.97
2019-03-21T22:19:30.492Z,102497.89
2019-03-21T22:21:56.741Z,102499.84
2019-03-21T22:24:22.835Z,102503.27
2019-03-21T22:26:48.951Z,102506.46
2019-03-21T22:29:15.313Z,102510.38
2019-03-21T22:31:41.519Z,102508.05
2019-03-21T22:34:07.710Z,102512.06
2019-03-21T22:36:33.817Z,102519.36
2019-03-21T22:39:00.012Z,102518.66
2019-03-21T22:41:26.098Z,102514.95
2019-03-21T22:43:52.226Z,102516.06
2019-03-21T22:46:18.305Z,102515.88
2019-03-21T22:48:44.413Z,102519.35
2019-03-21T22:51:10.509Z,102513.48
2019-03-21T22:53:36.613Z,102511.40
2019-03-21T22:56:02.904Z,102508.20
2019-03-21T22:58:31.946Z,102501.51
2019-03-21T23:00:57.292Z,102498.40
2019-03-21T23:03:23.667Z,102503.12
2019-03-21T23:05:49.866Z,102493.22
2019-03-21T23:08:16.022Z,102488.61
2019-03-21T23:10:44.937Z,102484.92
2019-03-21T23:13:10.222Z,102485.82
2019-03-21T23:15:36.305Z,102490.53
2019-03-21T23:18:02.694Z,102486.12
2019-03-21T23:20:28.797Z,102485.23
2019-03-21T23:22:55.136Z,102489.23
2019-03-21T23:25:21.531Z,102491.74
2019-03-21T23:27:47.923Z,102479.14
2019-03-21T23:30:18.123Z,102475.55
2019-03-21T23:32:44.530Z,102484.24
2019-03-21T23:35:11.048Z,102475.16
2019-03-21T23:37:37.435Z,102472.47
2019-03-21T23:40:11.879Z,102477.80
2019-03-21T23:42:37.982Z,102478.91
2019-03-21T23:45:06.059Z,102472.02
2019-03-21T23:47:32.263Z,102473.06
2019-03-21T23:49:58.467Z,102475.09
2019-03-21T23:52:24.701Z,102475.77
2019-03-21T23:54:50.806Z,102472.78
2019-03-21T23:57:16.911Z,102473.47
2019-03-21T23:59:42.998Z,102477.59
